Leland, IL (60531)

11:23 AM CST on December 25, 2014 (GMT -0600)
Weather at Chuck and Pats House | Change Station
CLOSE
Current Station
Personal Weather Station
Location: Serena, IL
Elevation: 633 ft
Nearby Weather Stations

Elev 633 ft 41.51 °N, 88.74 °W | Updated 12 minutes ago

Overcast
Overcast
40.0 °F
Feels Like 35 °F
N
8.0
Wind Variable Wind from SSW
Gusts 14.0 mph

Today
High -- | Low -- °F
--% Chance of Precip.
Yesterday
High -- | Low -- °F
Precip. -- in
7:20 AM 4:30 PM
Waxing Crescent, 18% visible
Pressure 29.98 in
Visibility 7.0 miles
Clouds Overcast 1800 ft
Windchill 35 °F
Dew Point 35 °F
Humidity 82%
Rainfall 0.00 in
Snow Depth Not available.
UV 1 out of 12
Pollen .10 out of 12
Air Quality Not available.
Flu Activity Not available.
METAR KARR 251652Z 22012KT 7SM OVC018 03/M02 A2996 RMK AO2 SLP150 T00281017

More Conditions Fewer Conditions

Pressure 29.98 in
Visibility 7.0 miles
Clouds Overcast 1800 ft
Windchill 35 °F
Dew Point 35 °F
Humidity 82%
Rainfall 0.00 in
Snow Depth Not available.
UV 1 out of 12
Pollen .10 out of 12
Air Quality Not available.
Flu Activity Not available.
METAR KARR 251652Z 22012KT 7SM OVC018 03/M02 A2996 RMK AO2 SLP150 T00281017

More Conditions Fewer Conditions

10-Day Weather Forecast

Almanac

Astronomy

Dec. 25, 2014 Rise Set
Actual Time
Civil Twilight
Nautical Twilight
Astronomical Twilight
Moon
Length of Visible Light
Length of Day
Tomorrow will be .
, % of the Moon is Illuminated

Today's Extremes

State Highs State Lows

Community

WunderPhotos

Upload Photos

1,780,346 photos uploaded!

WunderBlogs® & News

Nearby

Air Quality

  Air Quality AQ Index Pollutant
Not available.

Snow Depth

Station Depth Elevation

Earthquake Activity

City Distance Mag. Time & Date
Minimum magnitude displayed is 2.5.

Coastal Water Temperatures

Place Temperature

Nearby Weather Stations